• Join FlightAware (Why Join?)
  • Login
  • US Flag 
01:38PM EDT


 

Airport Tracker/Info


-or-


 

Live Flight TrackerFlight Track Log ✈ KAP927 ✈ 29-Jun-2013 ✈ KBOS - KALB

Flight Track Log - Related Links

Times and Time Zones

All times are in EDT time to prevent confusion due to time zone crossing. See the KAP927 flight status page for this flight to view local times or setup timezone preferences in your user account.

Time Position Orientation Groundspeed Altitude Reporting Facility
EDT Latitude Longitude Course Direction KTS MPH feet Rate Location/Type
01:19PM 42.3667 -71.0167 270° West 100 115 400  Level KA90
01:21PM 42.3667 -71.0667 270° West 111 128 1,300 600 Climbing KA90
01:23PM 42.3667 -71.1500 270° West 113 130 2,500 660 Climbing KA90
01:24PM 42.3833 -71.1833 304° West 114 131 3,300 720 Climbing KA90
01:25PM 42.3833 -71.2167 270° West 112 129 3,800 600 Climbing KA90
01:26PM 42.3667 -71.2500 236° Southwest 103 119 4,400 480 Climbing KA90
01:27PM 42.3667 -71.3000 270° West 111 128 4,800 420 Climbing KA90
01:28PM 42.3500 -71.3500 246° West 119 137 5,300 420 Climbing KA90
01:29PM 42.3500 -71.3833 270° West 110 127 5,700 360 Climbing KA90
01:30PM 42.3500 -71.4167 270° West 108 124 6,100 360 Climbing KA90
01:31PM 42.3333 -71.4667 246° West 112 129 6,500 360 Climbing KA90
01:31PM 42.3275 -71.4881 250° West 112 129 6,700 420 Climbing Boston Center
01:33PM 42.3156 -71.5556 257° West 109 125 7,500 420 Climbing Boston Center
01:34PM 42.3075 -71.5922 253° West 111 128 7,900 240 Climbing Boston Center
01:34PM 42.3017 -71.6261 257° West 116 133 8,000  Climbing Boston Center
01:35PM 42.2956 -71.6711 260° West 133 153 8,000  Level Boston Center
01:37PM 42.2856 -71.7217 255° West 141 162 8,000  Level Boston Center
01:37PM 42.2756 -71.7722 255° West 141 162 8,000  Level Boston Center
01:39PM 42.2653 -71.8258 255° West 135 155 8,000  Level Boston Center
01:39PM 42.2656 -71.8733 270° West 136 157 8,000  Level Boston Center
01:40PM 42.2681 -71.9239 274° West 136 157 8,000  Level Boston Center
01:41PM 42.2681 -71.9744 270° West 134 154 8,000  Level Boston Center
01:42PM 42.2706 -72.0247 274° West 135 155 8,000  Level Boston Center
01:44PM 42.2769 -72.0808 279° West 140 161 8,000  Level Boston Center
01:45PM 42.2917 -72.1342 290° West 145 167 8,000  Level Boston Center
01:46PM 42.3083 -72.1875 293° West 145 167 8,000  Level Boston Center
01:47PM 42.3211 -72.2350 290° West 144 166 8,000  Level Boston Center
01:48PM 42.3336 -72.2828 290° West 146 168 8,000  Level Boston Center
01:48PM 42.3461 -72.3306 290° West 146 168 8,000  Level Boston Center
01:50PM 42.3650 -72.3922 293° West 147 169 8,000  Level Boston Center
01:51PM 42.3794 -72.4486 289° West 147 169 8,000  Level Boston Center
01:52PM 42.3942 -72.5019 291° West 144 166 8,000  Level Boston Center
01:53PM 42.4108 -72.5525 294° West 144 166 8,000  Level Boston Center
01:54PM 42.4192 -72.5864 288° West 145 167 8,000  Level Boston Center
01:55PM 42.4336 -72.6397 290° West 142 163 8,000  Level Boston Center
01:56PM 42.4481 -72.6933 290° West 143 165 8,000  Level Boston Center
01:57PM 42.4625 -72.7442 291° West 148 170 8,000  Level Boston Center
01:58PM 42.4769 -72.7947 291° West 147 169 8,000  Level Boston Center
01:59PM 42.4933 -72.8483 293° West 152 175 8,100  Climbing Boston Center
02:00PM 42.5058 -72.8992 288° West 151 174 8,100  Level Boston Center
02:01PM 42.5200 -72.9528 290° West 151 174 8,100  Level Boston Center
02:02PM 42.5364 -73.0092 292° West 152 175 8,100  Level Boston Center
02:03PM 42.5508 -73.0658 289° West 146 168 8,100  Level Boston Center
02:04PM 42.5650 -73.1167 291° West 149 171 8,100  Level Boston Center
02:05PM 42.5794 -73.1703 290° West 147 169 8,100 -180 Level Boston Center
02:06PM 42.5936 -73.2242 290° West 153 176 7,800 -360 Descending Boston Center
02:07PM 42.6097 -73.2864 289° West 170 196 7,400 -480 Descending Boston Center
02:08PM 42.6261 -73.3431 291° West 175 201 6,900 -660 Descending Boston Center
02:09PM 42.6442 -73.4111 290° West 178 205 6,100 -840 Descending Boston Center
02:10PM 42.6603 -73.4761 289° West 182 209 5,300 -960 Descending Boston Center
02:11PM 42.6764 -73.5442 288° West 193 222 4,200 -960 Descending Boston Center
02:12PM 42.7028 -73.6153 297° West 204 235 3,400 -840 Descending Boston Center
02:13PM 42.7292 -73.6781 300° West 197 227 2,500 -1,080 Descending Boston Center
02:14PM 42.7475 -73.7322 295° West 157 181 1,300 -1,020 Descending Boston Center
02:15PM 42.7489 -73.7886 272° West 124 143 500 -840 Descending Boston Center
02:17PM 42.7491 -73.8020 288° West  Level Estimated
02:24PM 42.7491 -73.8020 288° West  Level Estimated
02:25PM 42.7491 -73.8020 288° West  Level Estimated